createdAt,value
2023-12-24T00:00:14.669Z,9.50
2023-12-24T00:02:47.454Z,9.50
2023-12-24T00:05:17.714Z,9.60
2023-12-24T00:07:47.792Z,9.60
2023-12-24T00:10:17.956Z,9.50
2023-12-24T00:12:47.914Z,9.50
2023-12-24T00:15:19.706Z,9.60
2023-12-24T00:17:52.678Z,9.50
2023-12-24T00:20:22.842Z,9.50
2023-12-24T00:23:07.429Z,9.50
2023-12-24T00:25:38.670Z,9.60
2023-12-24T00:28:09.662Z,9.60
2023-12-24T00:30:39.847Z,9.60
2023-12-24T00:33:12.578Z,9.60
2023-12-24T00:35:43.243Z,9.60
2023-12-24T00:38:13.244Z,9.60
2023-12-24T00:40:43.606Z,9.60
2023-12-24T00:43:14.329Z,9.50
2023-12-24T00:45:45.801Z,9.50
2023-12-24T00:48:18.519Z,9.50
2023-12-24T00:50:49.139Z,9.60
2023-12-24T00:53:19.250Z,9.60
2023-12-24T00:55:49.328Z,9.50
2023-12-24T00:58:19.426Z,9.50
2023-12-24T01:00:50.160Z,9.50
2023-12-24T01:03:22.995Z,9.50
2023-12-24T01:05:53.116Z,9.50
2023-12-24T01:08:23.181Z,9.60
2023-12-24T01:10:53.993Z,9.50
2023-12-24T01:13:24.245Z,9.60
2023-12-24T01:15:54.248Z,9.60
2023-12-24T01:18:27.408Z,9.60
2023-12-24T01:20:57.870Z,9.60
2023-12-24T01:23:27.933Z,9.60
2023-12-24T01:25:58.367Z,9.60
2023-12-24T01:28:28.399Z,9.70
2023-12-24T01:30:58.491Z,9.60
2023-12-24T01:33:31.616Z,9.50
2023-12-24T01:36:01.683Z,9.50
2023-12-24T01:38:31.692Z,9.60
2023-12-24T01:41:01.677Z,9.60
2023-12-24T01:43:31.665Z,9.50
2023-12-24T01:46:01.841Z,9.50
2023-12-24T01:48:34.694Z,9.50
2023-12-24T01:51:05.036Z,9.50
2023-12-24T01:53:35.894Z,9.40
2023-12-24T01:56:08.234Z,9.40
2023-12-24T01:58:38.556Z,9.40
2023-12-24T02:01:08.658Z,9.40
2023-12-24T02:03:41.364Z,9.40
2023-12-24T02:06:13.971Z,9.40
2023-12-24T02:08:45.405Z,9.30
2023-12-24T02:11:16.422Z,9.30
2023-12-24T02:13:46.616Z,9.30
2023-12-24T02:16:21.278Z,9.30
2023-12-24T02:18:54.480Z,9.30
2023-12-24T02:21:27.274Z,9.30
2023-12-24T02:23:57.307Z,9.30
2023-12-24T02:26:31.783Z,9.30
2023-12-24T02:29:04.725Z,9.50
2023-12-24T02:31:36.382Z,9.50
2023-12-24T02:34:08.119Z,9.40
2023-12-24T02:36:42.561Z,9.40
2023-12-24T02:39:12.622Z,9.40
2023-12-24T02:41:42.718Z,9.40
2023-12-24T02:44:14.602Z,9.50
2023-12-24T02:46:44.962Z,9.40
2023-12-24T02:49:15.768Z,9.50
2023-12-24T02:51:48.382Z,9.50
2023-12-24T02:54:18.357Z,9.40
2023-12-24T02:56:48.703Z,9.40
2023-12-24T02:59:18.666Z,9.40
2023-12-24T03:01:49.450Z,9.40
2023-12-24T03:04:17.412Z,9.40
2023-12-24T03:06:50.043Z,9.40
2023-12-24T03:09:20.121Z,9.30
2023-12-24T03:11:50.107Z,9.30
2023-12-24T03:14:20.167Z,9.30
2023-12-24T03:16:50.165Z,9.30
2023-12-24T03:19:22.098Z,9.30
2023-12-24T03:21:54.683Z,9.30
2023-12-24T03:24:24.746Z,9.30
2023-12-24T03:26:55.417Z,9.30
2023-12-24T03:29:25.681Z,9.20
2023-12-24T03:31:55.780Z,9.20
2023-12-24T03:34:25.758Z,9.20
2023-12-24T03:36:58.402Z,9.10
2023-12-24T03:39:28.426Z,9.10
2023-12-24T03:41:58.364Z,9.10
2023-12-24T03:44:28.367Z,9.10
2023-12-24T03:46:58.562Z,9.10
2023-12-24T03:49:28.519Z,9.10
2023-12-24T03:52:01.119Z,9.10
2023-12-24T03:54:31.300Z,9.10
2023-12-24T03:57:01.279Z,9.10
2023-12-24T03:59:32.000Z,9.10
2023-12-24T04:02:04.039Z,9.10
2023-12-24T04:04:34.142Z,9.10
2023-12-24T04:07:06.858Z,9.10
2023-12-24T04:09:37.121Z,9.20
2023-12-24T04:12:08.001Z,9.20
2023-12-24T04:14:40.357Z,9.20
2023-12-24T04:17:11.255Z,9.20
2023-12-24T04:19:41.383Z,9.30
2023-12-24T04:22:14.685Z,9.20
2023-12-24T04:24:45.337Z,9.30
2023-12-24T04:27:15.684Z,9.20
2023-12-24T04:29:45.639Z,9.20
2023-12-24T04:32:18.291Z,9.30
2023-12-24T04:34:48.451Z,9.30
2023-12-24T04:37:21.005Z,9.30
2023-12-24T04:39:51.001Z,9.30
2023-12-24T04:42:20.997Z,9.30
2023-12-24T04:44:52.015Z,9.30
2023-12-24T04:47:22.570Z,9.30
2023-12-24T04:49:52.557Z,9.20
2023-12-24T04:52:25.134Z,9.20
2023-12-24T04:54:55.253Z,9.20
2023-12-24T04:57:25.194Z,9.20
2023-12-24T04:59:55.487Z,9.10
2023-12-24T05:02:25.576Z,9.10
2023-12-24T05:04:56.056Z,9.10
2023-12-24T05:07:28.780Z,9.00
2023-12-24T05:09:58.784Z,9.00
2023-12-24T05:12:28.772Z,9.00
2023-12-24T05:14:58.887Z,8.90
2023-12-24T05:17:28.884Z,8.90
2023-12-24T05:19:58.972Z,8.90
2023-12-24T05:22:31.518Z,8.80
2023-12-24T05:25:01.526Z,8.80
2023-12-24T05:27:31.652Z,8.80
2023-12-24T05:30:01.577Z,8.80
2023-12-24T05:32:31.809Z,8.70
2023-12-24T05:35:01.901Z,8.70
2023-12-24T05:37:34.536Z,8.70
2023-12-24T05:40:01.916Z,8.80
2023-12-24T05:42:31.903Z,8.80
2023-12-24T05:45:01.915Z,8.80
2023-12-24T05:47:32.129Z,8.80
2023-12-24T05:50:02.206Z,8.80
2023-12-24T05:52:34.774Z,8.80
2023-12-24T05:55:05.403Z,8.80
2023-12-24T05:57:35.359Z,8.80
2023-12-24T06:00:06.731Z,8.80
2023-12-24T06:02:48.699Z,8.80
2023-12-24T06:05:19.009Z,8.80
2023-12-24T06:07:51.664Z,8.80
2023-12-24T06:10:21.683Z,8.80
2023-12-24T06:12:55.606Z,8.80
2023-12-24T06:15:25.747Z,8.80
2023-12-24T06:17:55.888Z,8.90
2023-12-24T06:20:26.292Z,8.90
2023-12-24T06:22:59.021Z,8.90
2023-12-24T06:25:29.150Z,8.90
2023-12-24T06:27:59.093Z,8.90
2023-12-24T06:30:29.050Z,8.90
2023-12-24T06:32:59.062Z,8.90
2023-12-24T06:35:29.113Z,9.00
2023-12-24T06:38:01.775Z,9.00
2023-12-24T06:40:31.801Z,9.00
2023-12-24T06:43:02.052Z,8.90
2023-12-24T06:45:32.219Z,9.00
2023-12-24T06:48:04.580Z,9.00
2023-12-24T06:50:34.987Z,8.90
2023-12-24T06:53:07.956Z,9.00
2023-12-24T06:55:38.062Z,9.00
2023-12-24T06:58:08.185Z,9.00
2023-12-24T07:00:38.282Z,9.00
2023-12-24T07:03:08.377Z,9.00
2023-12-24T07:05:39.863Z,9.10
2023-12-24T07:08:13.820Z,9.10
2023-12-24T07:10:44.128Z,9.10
2023-12-24T07:13:14.180Z,9.10
2023-12-24T07:15:44.844Z,9.00
2023-12-24T07:18:15.138Z,9.00
2023-12-24T07:20:45.765Z,9.10
2023-12-24T07:23:18.562Z,9.10
2023-12-24T07:25:48.522Z,9.00
2023-12-24T07:28:18.578Z,9.00
2023-12-24T07:30:48.770Z,8.90
2023-12-24T07:33:20.921Z,8.90
2023-12-24T07:35:51.148Z,8.90
2023-12-24T07:38:23.728Z,8.90
2023-12-24T07:40:53.820Z,8.80
2023-12-24T07:43:24.061Z,8.80
2023-12-24T07:45:54.163Z,8.90
2023-12-24T07:48:25.497Z,8.90
2023-12-24T07:50:55.615Z,8.90
2023-12-24T07:53:28.194Z,9.00
2023-12-24T07:55:58.283Z,9.00
2023-12-24T07:58:28.283Z,9.00
2023-12-24T08:00:58.323Z,9.00
2023-12-24T08:03:28.371Z,9.10
2023-12-24T08:05:58.498Z,9.10
2023-12-24T08:08:31.165Z,9.10
2023-12-24T08:11:09.764Z,9.10
2023-12-24T08:13:44.256Z,9.20
2023-12-24T08:16:14.334Z,9.20
2023-12-24T08:18:44.399Z,9.20
2023-12-24T08:21:14.528Z,9.30
2023-12-24T08:23:47.454Z,9.30
2023-12-24T08:26:19.579Z,9.40
2023-12-24T08:28:49.665Z,9.30
2023-12-24T08:31:19.665Z,9.30
2023-12-24T08:33:49.744Z,9.40
2023-12-24T08:36:20.535Z,9.40
2023-12-24T08:38:53.429Z,9.40
2023-12-24T08:41:23.702Z,9.40
2023-12-24T08:43:53.663Z,9.40
2023-12-24T08:46:23.616Z,9.50
2023-12-24T08:48:53.764Z,9.50
2023-12-24T08:51:23.747Z,9.50
2023-12-24T08:53:56.252Z,9.50
2023-12-24T08:56:26.538Z,9.60
2023-12-24T08:58:56.655Z,9.60
2023-12-24T09:01:26.571Z,9.60
2023-12-24T09:03:56.504Z,9.70
2023-12-24T09:06:26.531Z,9.60
2023-12-24T09:08:59.279Z,9.60
2023-12-24T09:11:29.398Z,9.60
2023-12-24T09:13:59.368Z,9.50
2023-12-24T09:16:29.324Z,9.50
2023-12-24T09:18:59.380Z,9.40
2023-12-24T09:21:29.404Z,9.40
2023-12-24T09:24:02.770Z,9.40
2023-12-24T09:26:32.862Z,9.40
2023-12-24T09:29:03.015Z,9.40
2023-12-24T09:31:33.088Z,9.40
2023-12-24T09:34:04.222Z,9.40
2023-12-24T09:36:34.403Z,9.30
2023-12-24T09:39:07.291Z,9.30
2023-12-24T09:41:38.633Z,9.30
2023-12-24T09:44:11.665Z,9.30
2023-12-24T09:46:41.649Z,9.30
2023-12-24T09:49:11.935Z,9.30
2023-12-24T09:51:45.550Z,9.40
2023-12-24T09:54:18.561Z,9.30
2023-12-24T09:56:48.638Z,9.40
2023-12-24T09:59:18.631Z,9.40
2023-12-24T10:01:46.691Z,9.40
2023-12-24T10:04:17.594Z,9.40
2023-12-24T10:06:57.669Z,9.40
2023-12-24T10:09:46.350Z,9.30
2023-12-24T10:12:16.532Z,9.40
2023-12-24T10:14:59.918Z,9.30
2023-12-24T10:17:34.354Z,9.40
2023-12-24T10:20:07.604Z,9.40
2023-12-24T10:22:37.994Z,9.40
2023-12-24T10:25:12.001Z,9.40
2023-12-24T10:27:41.975Z,9.40
2023-12-24T10:30:14.052Z,9.40
2023-12-24T10:32:46.235Z,9.40
2023-12-24T10:35:25.104Z,9.40
2023-12-24T10:37:55.659Z,9.50
2023-12-24T10:40:28.175Z,9.50
2023-12-24T10:42:58.171Z,9.50
2023-12-24T10:45:29.252Z,9.60
2023-12-24T10:47:59.461Z,9.60
2023-12-24T10:50:29.693Z,9.60
2023-12-24T10:52:59.732Z,9.60
2023-12-24T10:55:33.738Z,9.70
2023-12-24T10:58:13.422Z,9.70
2023-12-24T11:00:44.181Z,9.70
2023-12-24T11:03:14.344Z,9.70
2023-12-24T11:05:53.699Z,9.70
2023-12-24T11:08:33.630Z,9.70
2023-12-24T11:11:09.078Z,9.80
2023-12-24T11:13:48.981Z,9.90
2023-12-24T11:16:40.700Z,9.90
2023-12-24T11:19:10.881Z,10.00
2023-12-24T11:22:12.551Z,10.00
2023-12-24T11:24:52.139Z,10.10
2023-12-24T11:27:56.439Z,10.10
2023-12-24T11:30:26.453Z,10.10
2023-12-24T11:32:56.907Z,10.10
2023-12-24T11:35:58.226Z,10.10
2023-12-24T11:38:51.533Z,10.20
2023-12-24T11:41:23.337Z,10.20
2023-12-24T11:43:59.924Z,10.30
2023-12-24T11:46:31.404Z,10.30
2023-12-24T11:49:08.407Z,10.40
2023-12-24T11:51:39.113Z,10.50
2023-12-24T11:54:09.366Z,10.50
2023-12-24T11:56:39.546Z,10.60
2023-12-24T11:59:12.141Z,10.70
2023-12-24T12:01:42.220Z,10.80
2023-12-24T12:04:12.392Z,10.90
2023-12-24T12:06:42.429Z,11.00
2023-12-24T12:09:15.230Z,11.10
2023-12-24T12:11:47.940Z,11.30
2023-12-24T12:14:20.561Z,11.40
2023-12-24T12:16:50.708Z,11.50
2023-12-24T12:19:20.979Z,11.40
2023-12-24T12:21:50.976Z,11.50
2023-12-24T12:24:23.149Z,11.40
2023-12-24T12:26:53.155Z,11.40
2023-12-24T12:29:25.768Z,11.30
2023-12-24T12:31:59.255Z,11.30
2023-12-24T12:34:29.261Z,11.20
2023-12-24T12:37:00.225Z,11.20
2023-12-24T12:39:30.172Z,11.10
2023-12-24T12:42:01.680Z,11.10
2023-12-24T12:44:34.409Z,11.10
2023-12-24T12:47:04.545Z,11.10
2023-12-24T12:49:34.658Z,11.00
2023-12-24T12:52:04.810Z,11.10
2023-12-24T12:54:35.030Z,11.10
2023-12-24T12:57:05.043Z,11.10
2023-12-24T12:59:37.664Z,11.10
2023-12-24T13:02:08.467Z,11.10
2023-12-24T13:04:38.578Z,11.10
2023-12-24T13:07:09.833Z,11.10
2023-12-24T13:09:47.460Z,11.00
2023-12-24T13:12:22.009Z,11.00
2023-12-24T13:15:00.850Z,11.00
2023-12-24T13:17:30.899Z,10.90
2023-12-24T13:20:00.880Z,10.90
2023-12-24T13:22:32.156Z,10.80
2023-12-24T13:25:02.356Z,10.80
2023-12-24T13:27:32.333Z,10.80
2023-12-24T13:30:04.907Z,10.70
2023-12-24T13:32:35.049Z,10.70
2023-12-24T13:35:05.156Z,10.70
2023-12-24T13:37:35.192Z,10.70
2023-12-24T13:40:05.113Z,10.70
2023-12-24T13:42:35.537Z,10.70
2023-12-24T13:45:10.030Z,10.70
2023-12-24T13:47:40.082Z,10.70
2023-12-24T13:50:11.484Z,10.70
2023-12-24T13:52:42.230Z,10.70
2023-12-24T13:55:12.787Z,10.70
2023-12-24T13:57:43.093Z,10.70
2023-12-24T14:00:17.743Z,10.70
2023-12-24T14:02:48.688Z,10.70
2023-12-24T14:05:19.586Z,10.70
2023-12-24T14:07:49.750Z,10.70
2023-12-24T14:10:19.793Z,10.70
2023-12-24T14:12:50.723Z,10.60
2023-12-24T14:15:23.504Z,10.60
2023-12-24T14:17:53.691Z,10.60
2023-12-24T14:20:23.859Z,10.60
2023-12-24T14:22:54.141Z,10.60
2023-12-24T14:25:24.303Z,10.60
2023-12-24T14:27:54.299Z,10.50
2023-12-24T14:30:26.838Z,10.60
2023-12-24T14:32:57.201Z,10.60
2023-12-24T14:35:27.464Z,10.60
2023-12-24T14:37:57.427Z,10.60
2023-12-24T14:40:28.691Z,10.60
2023-12-24T14:42:58.650Z,10.60
2023-12-24T14:45:31.273Z,10.60
2023-12-24T14:48:01.468Z,10.60
2023-12-24T14:50:31.602Z,10.70
2023-12-24T14:53:01.766Z,10.60
2023-12-24T14:55:31.725Z,10.70
2023-12-24T14:58:01.697Z,10.70
2023-12-24T15:00:34.199Z,10.60
2023-12-24T15:03:04.994Z,10.60
2023-12-24T15:05:35.110Z,10.60
2023-12-24T15:08:05.177Z,10.60
2023-12-24T15:10:35.217Z,10.60
2023-12-24T15:13:05.486Z,10.50
2023-12-24T15:15:38.293Z,10.30
2023-12-24T15:18:08.827Z,10.30
2023-12-24T15:20:38.930Z,10.30
2023-12-24T15:23:08.996Z,10.30
2023-12-24T15:25:38.934Z,10.30
2023-12-24T15:28:09.103Z,10.30
2023-12-24T15:30:41.652Z,10.30
2023-12-24T15:33:11.684Z,10.30
2023-12-24T15:35:42.739Z,10.30
2023-12-24T15:38:12.903Z,10.30
2023-12-24T15:40:42.861Z,10.30
2023-12-24T15:43:13.229Z,10.30
2023-12-24T15:45:45.777Z,10.40
2023-12-24T15:48:15.978Z,10.40
2023-12-24T15:50:46.160Z,10.40
2023-12-24T15:53:16.241Z,10.40
2023-12-24T15:55:46.340Z,10.40
2023-12-24T15:58:16.537Z,10.40
2023-12-24T16:00:49.120Z,10.40
2023-12-24T16:03:19.248Z,10.40
2023-12-24T16:05:49.452Z,10.40
2023-12-24T16:08:19.421Z,10.40
2023-12-24T16:10:49.531Z,10.40
2023-12-24T16:13:19.435Z,10.40
2023-12-24T16:15:51.923Z,10.40
2023-12-24T16:18:22.082Z,10.40
2023-12-24T16:20:52.279Z,10.40
2023-12-24T16:23:22.415Z,10.50
2023-12-24T16:25:52.584Z,10.50
2023-12-24T16:28:22.506Z,10.40
2023-12-24T16:30:55.154Z,10.50
2023-12-24T16:33:25.231Z,10.50
2023-12-24T16:35:55.238Z,10.50
2023-12-24T16:38:25.291Z,10.50
2023-12-24T16:40:55.312Z,10.50
2023-12-24T16:43:25.216Z,10.50
2023-12-24T16:45:57.778Z,10.50
2023-12-24T16:48:28.076Z,10.50
2023-12-24T16:50:58.210Z,10.50
2023-12-24T16:53:28.605Z,10.50
2023-12-24T16:56:03.569Z,10.50
2023-12-24T16:58:33.500Z,10.50
2023-12-24T17:01:06.280Z,10.50
2023-12-24T17:03:36.344Z,10.50
2023-12-24T17:06:06.700Z,10.50
2023-12-24T17:08:37.688Z,10.50
2023-12-24T17:11:08.853Z,10.60
2023-12-24T17:13:39.078Z,10.60
2023-12-24T17:16:11.696Z,10.50
2023-12-24T17:18:41.878Z,10.50
2023-12-24T17:21:11.988Z,10.60
2023-12-24T17:23:42.075Z,10.60
2023-12-24T17:26:12.152Z,10.60
2023-12-24T17:28:42.077Z,10.60
2023-12-24T17:31:14.617Z,10.60
2023-12-24T17:33:47.570Z,10.60
2023-12-24T17:36:20.390Z,10.60
2023-12-24T17:38:50.478Z,10.60
2023-12-24T17:41:23.473Z,10.50
2023-12-24T17:43:53.569Z,10.50
2023-12-24T17:46:26.063Z,10.50
2023-12-24T17:48:56.136Z,10.50
2023-12-24T17:51:26.190Z,10.60
2023-12-24T17:53:57.004Z,10.60
2023-12-24T17:56:26.930Z,10.50
2023-12-24T17:58:56.966Z,10.50
2023-12-24T18:01:29.519Z,10.60
2023-12-24T18:03:59.436Z,10.60
2023-12-24T18:06:29.479Z,10.60
2023-12-24T18:09:01.060Z,10.70
2023-12-24T18:11:35.055Z,10.70
2023-12-24T18:14:05.203Z,10.70
2023-12-24T18:16:37.710Z,10.70
2023-12-24T18:19:07.794Z,10.70
2023-12-24T18:21:37.777Z,10.70
2023-12-24T18:24:10.242Z,10.70
2023-12-24T18:26:40.639Z,10.70
2023-12-24T18:29:13.706Z,10.70
2023-12-24T18:31:46.820Z,10.80
2023-12-24T18:34:16.831Z,10.70
2023-12-24T18:36:47.357Z,10.70
2023-12-24T18:39:17.440Z,10.80
2023-12-24T18:41:47.518Z,10.70
2023-12-24T18:44:17.509Z,10.80
2023-12-24T18:46:50.057Z,10.80
2023-12-24T18:49:20.072Z,10.80
2023-12-24T18:51:50.028Z,10.90
2023-12-24T18:54:20.526Z,10.80
2023-12-24T18:57:02.448Z,10.90
2023-12-24T18:59:32.510Z,10.90
2023-12-24T19:02:05.110Z,10.90
2023-12-24T19:04:35.168Z,10.90
2023-12-24T19:07:07.969Z,10.80
2023-12-24T19:09:38.619Z,10.90
2023-12-24T19:12:09.061Z,10.90
2023-12-24T19:14:39.414Z,10.90
2023-12-24T19:17:12.014Z,10.90
2023-12-24T19:19:42.158Z,10.80
2023-12-24T19:22:12.130Z,10.80
2023-12-24T19:24:42.088Z,10.80
2023-12-24T19:27:13.245Z,10.90
2023-12-24T19:29:44.260Z,10.90
2023-12-24T19:32:17.007Z,10.90
2023-12-24T19:34:47.132Z,10.90
2023-12-24T19:37:17.203Z,10.90
2023-12-24T19:39:48.057Z,10.80
2023-12-24T19:42:18.005Z,10.80
2023-12-24T19:44:48.010Z,10.80
2023-12-24T19:47:20.679Z,10.80
2023-12-24T19:49:51.654Z,10.80
2023-12-24T19:52:32.507Z,10.80
2023-12-24T19:55:10.394Z,10.70
2023-12-24T19:57:40.334Z,10.70
2023-12-24T20:00:11.836Z,10.70
2023-12-24T20:02:47.584Z,10.80
2023-12-24T20:05:18.140Z,10.80
2023-12-24T20:07:48.456Z,10.80
2023-12-24T20:10:18.609Z,10.80
2023-12-24T20:12:48.651Z,10.80
2023-12-24T20:15:18.625Z,10.90
2023-12-24T20:17:51.903Z,10.80
2023-12-24T20:20:22.015Z,10.90
2023-12-24T20:22:52.108Z,10.90
2023-12-24T20:25:22.127Z,10.90
2023-12-24T20:27:52.068Z,10.90
2023-12-24T20:30:22.103Z,10.90
2023-12-24T20:32:55.100Z,10.90
2023-12-24T20:35:25.302Z,10.90
2023-12-24T20:37:55.276Z,10.80
2023-12-24T20:40:25.188Z,10.90
2023-12-24T20:42:55.238Z,10.90
2023-12-24T20:45:25.964Z,10.90
2023-12-24T20:47:58.606Z,10.80
2023-12-24T20:50:28.732Z,10.90
2023-12-24T20:52:58.748Z,10.90
2023-12-24T20:55:28.938Z,10.90
2023-12-24T20:57:59.108Z,10.90
2023-12-24T21:00:29.036Z,10.90
2023-12-24T21:03:01.637Z,10.90
2023-12-24T21:05:31.819Z,10.90
2023-12-24T21:08:01.968Z,10.90
2023-12-24T21:10:33.250Z,10.80
2023-12-24T21:13:03.228Z,10.90
2023-12-24T21:15:33.299Z,10.90
2023-12-24T21:18:06.194Z,10.90
2023-12-24T21:20:36.389Z,10.90
2023-12-24T21:23:06.732Z,10.90
2023-12-24T21:25:36.679Z,10.90
2023-12-24T21:28:07.789Z,10.90
2023-12-24T21:30:37.819Z,10.90
2023-12-24T21:33:10.574Z,10.90
2023-12-24T21:35:41.021Z,10.90
2023-12-24T21:38:10.977Z,10.90
2023-12-24T21:40:40.900Z,10.80
2023-12-24T21:43:10.873Z,10.70
2023-12-24T21:45:40.760Z,10.70
2023-12-24T21:48:13.500Z,10.70
2023-12-24T21:50:43.615Z,10.60
2023-12-24T21:53:14.215Z,10.60
2023-12-24T21:55:44.290Z,10.60
2023-12-24T21:58:14.232Z,10.60
2023-12-24T22:00:48.991Z,10.60
2023-12-24T22:03:29.292Z,10.60
2023-12-24T22:06:01.288Z,10.60
2023-12-24T22:08:31.606Z,10.60
2023-12-24T22:11:01.539Z,10.60
2023-12-24T22:13:32.072Z,10.60
2023-12-24T22:16:02.035Z,10.70
2023-12-24T22:18:34.679Z,10.70
2023-12-24T22:21:04.657Z,10.80
2023-12-24T22:23:35.895Z,10.80
2023-12-24T22:26:07.377Z,10.80
2023-12-24T22:28:37.307Z,10.80
2023-12-24T22:31:08.276Z,10.70
2023-12-24T22:33:42.657Z,10.80
2023-12-24T22:36:13.671Z,10.90
2023-12-24T22:38:43.658Z,11.00
2023-12-24T22:41:13.602Z,10.90
2023-12-24T22:43:45.211Z,10.90
2023-12-24T22:46:15.284Z,10.90
2023-12-24T22:48:47.947Z,10.90
2023-12-24T22:51:18.078Z,11.00
2023-12-24T22:53:48.145Z,11.00
2023-12-24T22:56:18.360Z,11.00
2023-12-24T22:58:48.490Z,11.20
2023-12-24T23:01:18.858Z,11.30
2023-12-24T23:03:51.453Z,11.20
2023-12-24T23:06:23.763Z,11.20
2023-12-24T23:08:55.322Z,11.20
2023-12-24T23:11:25.508Z,11.30
2023-12-24T23:13:55.449Z,11.30
2023-12-24T23:16:25.416Z,11.30
2023-12-24T23:18:58.047Z,11.30
2023-12-24T23:21:28.225Z,11.20
2023-12-24T23:23:58.265Z,11.30
2023-12-24T23:26:28.212Z,11.30
2023-12-24T23:28:58.129Z,11.20
2023-12-24T23:31:28.162Z,11.30
2023-12-24T23:34:00.937Z,11.30
2023-12-24T23:36:31.079Z,11.30
2023-12-24T23:39:01.175Z,11.30
2023-12-24T23:41:31.205Z,11.30
2023-12-24T23:44:01.217Z,11.30
2023-12-24T23:46:31.144Z,11.30
2023-12-24T23:49:03.816Z,11.20
2023-12-24T23:51:34.110Z,11.30
2023-12-24T23:54:04.137Z,11.30
2023-12-24T23:56:34.190Z,11.30
2023-12-24T23:59:04.143Z,11.30
